Latest Weather Observations for Cloncurry

IDQ60801

Issued at 8:02 am EST Sunday 28 August 2016 (issued every 30 minutes, with the page automatically refreshed every 10 minutes)

About weather observations | Map of weather stations | Latest weather observations for QLD | Other Formats
Station Details ID: 029141 Name: CLONCURRY AIRPORT Lat: -20.67 Lon: 140.50 Height: 186.0 m
Data from the previous 72 hours. | See also: Recent months at Cloncurry
Date/Time
EST
Temp
°C
App
Temp
°C
Dew
Point
°C
Rel
Hum
%
Delta-T
°C
Wind Press
QNH
hPa
Press
MSL
hPa
Rain since
9am
mm
Dir  Spd
km/h
Gust
km/h
Spd
kts
Gust
kts
28/08:00am 14.3 9.0 3.2 47 5.0 ESE 20 28 11 15 1020.4 1019.8 0.0
28/07:30am 13.0 8.7 3.1 51 4.4 ESE 15 20 8 11 1020.0 1019.4 0.0
28/07:00am 12.2 7.9 3.4 55 3.9 ESE 15 20 8 11 1019.8 1019.2 0.0
28/06:30am 12.5 7.9 3.5 54 4.1 ESE 17 24 9 13 1019.3 1018.7 0.0
28/06:00am 12.9 8.3 3.6 53 4.2 SE 17 24 9 13 1019.0 1018.5 0.0
28/05:30am 12.8 8.2 3.7 54 4.1 SE 17 24 9 13 1018.7 1018.2 0.0
28/05:00am 12.9 8.3 3.8 54 4.1 SE 17 26 9 14 1018.6 1018.1 0.0
28/04:30am 13.0 8.8 3.7 53 4.2 SE 15 20 8 11 1018.7 1018.2 0.0
28/04:00am 13.2 9.0 3.8 53 4.3 SE 15 19 8 10 1018.8 1018.3 0.0
28/03:30am 13.6 9.0 3.9 52 4.4 SE 17 24 9 13 1019.0 1018.5 0.0
28/03:00am 13.8 9.2 3.9 51 4.5 SE 17 24 9 13 1019.5 1018.9 0.0
28/02:30am 14.1 9.1 3.6 49 4.8 ESE 19 22 10 12 1019.6 1019.0 0.0
28/02:00am 14.2 9.9 3.4 48 4.9 SE 15 20 8 11 1019.7 1019.1 0.0
28/01:30am 14.9 10.6 3.1 45 5.4 SE 15 20 8 11 1019.8 1019.2 0.0
28/01:00am 15.1 10.4 3.3 45 5.4 SE 17 19 9 10 1019.9 1019.3 0.0
28/12:30am 15.4 11.1 3.2 44 5.6 SE 15 20 8 11 1020.3 1019.7 0.0
28/12:00am 15.9 11.2 3.0 42 5.9 SE 17 20 9 11 1020.3 1019.7 0.0
 
Date/Time
EST
Temp
°C
App
Temp
°C
Dew
Point
°C
Rel
Hum
%
Delta-T
°C
Wind Press
QNH
hPa
Press
MSL
hPa
Rain since
9am
mm
Dir  Spd
km/h
Gust
km/h
Spd
kts
Gust
kts
27/11:30pm 16.5 11.8 2.9 40 6.3 SE 17 22 9 12 1020.5 1019.9 0.0
27/11:00pm 16.9 11.7 2.5 38 6.6 SE 19 22 10 12 1020.4 1019.8 0.0
27/10:30pm 17.4 12.2 2.2 36 6.9 SE 19 26 10 14 1020.5 1019.9 0.0
27/10:00pm 17.5 12.7 2.7 37 6.8 SE 17 20 9 11 1020.5 1019.9 0.0
27/09:30pm 17.7 12.9 2.5 36 7.0 SE 17 20 9 11 1020.4 1019.8 0.0
27/09:00pm 18.2 12.7 2.1 34 7.4 SSE 20 28 11 15 1020.1 1019.5 0.0
27/08:30pm 18.1 13.6 2.4 35 7.2 SE 15 19 8 10 1020.2 1019.6 0.0
27/08:00pm 18.5 14.0 2.4 34 7.4 SE 15 17 8 9 1020.1 1019.5 0.0
27/07:30pm 19.1 14.9 1.6 31 8.0 SE 13 17 7 9 1019.7 1019.1 0.0
27/07:00pm 19.8 15.2 1.7 30 8.3 SE 15 20 8 11 1019.4 1018.8 0.0
27/06:30pm 20.6 15.0 1.5 28 8.8 SE 20 24 11 13 1019.2 1018.6 0.0
27/06:00pm 21.5 15.8 0.7 25 9.5 SE 20 26 11 14 1019.0 1018.5 0.0
27/05:30pm 22.1 16.4 0.6 24 9.9 SE 20 26 11 14 1018.9 1018.4 0.0
27/05:00pm 22.6 16.2 1.0 24 10.0 SE 24 32 13 17 1018.6 1018.1 0.0
27/04:30pm 22.8 16.8 1.2 24 10.1 SE 22 32 12 17 1018.3 1017.8 0.0
27/04:00pm 23.2 16.7 0.3 22 10.5 SE 24 33 13 18 1018.3 1017.8 0.0
27/03:30pm 23.2 16.9 1.5 24 10.2 SE 24 33 13 18 1018.7 1018.2 0.0
27/03:00pm 23.2 16.3 0.3 22 10.5 SE 26 37 14 20 1018.9 1018.4 0.0
27/02:30pm 22.5 16.3 -0.3 22 10.3 ESE 22 33 12 18 1019.5 1018.9 0.0
27/02:00pm 22.3 15.8 0.2 23 10.1 ESE 24 35 13 19 1020.0 1019.4 0.0
27/01:30pm 21.9 15.8 0.4 24 9.8 SE 22 37 12 20 1020.4 1019.8 0.0
27/01:00pm 21.4 15.2 0.0 24 9.6 SE 22 32 12 17 1021.1 1020.5 0.0
27/12:30pm 21.3 15.3 1.0 26 9.3 SE 22 35 12 19 1021.7 1021.1 0.0
27/12:00pm 20.8 13.5 0.1 25 9.3 SE 28 41 15 22 1022.1 1021.5 0.0
27/11:30am 20.4 13.9 0.3 26 9.0 SE 24 41 13 22 1022.7 1022.2 0.0
27/11:00am 20.4 13.1 -0.3 25 9.2 SE 28 41 15 22 1023.0 1022.5 0.0
27/10:30am 19.7 11.7 0.7 28 8.6 ESE 32 43 17 23 1023.4 1022.9 0.0
27/10:00am 19.4 12.7 1.4 30 8.2 ESE 26 35 14 19 1023.3 1022.8 0.0
27/09:30am 17.9 11.3 2.2 35 7.2 ESE 26 35 14 19 1023.2 1022.7 0.0
27/09:00am 16.7 9.8 2.3 38 6.5 ESE 28 35 15 19 1022.9 1022.4 0.0
27/08:30am 15.7 9.6 2.8 42 5.9 ESE 24 32 13 17 1022.8 1022.3 0.0
27/08:00am 14.3 10.5 4.0 50 4.7 SSE 13 22 7 12 1022.4 1021.8 0.0
27/07:30am 10.5 7.6 4.6 67 2.7 SSE 9 11 5 6 1022.1 1021.5 0.0
27/07:00am 8.9 5.6 4.5 74 2.0 SSE 11 13 6 7 1021.7 1021.1 0.0
27/06:30am 9.0 6.0 4.2 72 2.1 SSE 9 11 5 6 1021.4 1020.8 0.0
27/06:00am 9.0 6.1 4.4 73 2.0 SSE 9 11 5 6 1021.0 1020.4 0.0
27/05:30am 9.2 5.5 4.4 72 2.1 SSE 13 15 7 8 1020.6 1020.0 0.0
27/05:00am 9.6 6.7 4.8 72 2.2 SSE 9 11 5 6 1020.4 1019.8 0.0
27/04:30am 9.8 6.5 4.6 70 2.3 SSE 11 13 6 7 1020.3 1019.7 0.0
27/04:00am 10.2 7.3 4.6 68 2.5 SSE 9 11 5 6 1020.5 1019.9 0.0
27/03:30am 10.3 6.9 4.0 65 2.8 SSE 11 13 6 7 1020.7 1020.1 0.0
27/03:00am 10.9 7.9 3.9 62 3.1 SSE 9 11 5 6 1020.8 1020.2 0.0
27/02:30am 12.2 9.1 3.4 55 3.9 SSE 9 13 5 7 1020.6 1020.0 0.0
27/02:00am 13.7 10.1 3.2 49 4.7 SSE 11 13 6 7 1020.6 1020.0 0.0
27/01:30am 13.1 9.5 2.9 50 4.6 SSE 11 13 6 7 1020.9 1020.3 0.0
27/01:00am 14.9 10.1 2.8 44 5.5 SSE 17 20 9 11 1021.3 1020.7 0.0
27/12:30am 13.9 10.1 3.7 50 4.7 ESE 13 17 7 9 1021.5 1020.9 0.0
27/12:00am 13.2 10.1 3.6 52 4.3 ESE 9 11 5 6 1021.5 1020.9 0.0
 
Date/Time
EST
Temp
°C
App
Temp
°C
Dew
Point
°C
Rel
Hum
%
Delta-T
°C
Wind Press
QNH
hPa
Press
MSL
hPa
Rain since
9am
mm
Dir  Spd
km/h
Gust
km/h
Spd
kts
Gust
kts
26/11:30pm 14.0 10.6 3.8 50 4.7 ESE 11 13 6 7 1021.5 1020.9 0.0
26/11:00pm 13.5 10.1 3.8 52 4.4 SSE 11 11 6 6 1021.3 1020.7 0.0
26/10:30pm 13.9 10.1 3.7 50 4.7 SSE 13 15 7 8 1021.0 1020.4 0.0
26/10:00pm 14.5 10.6 3.3 47 5.1 SSE 13 13 7 7 1021.0 1020.4 0.0
26/09:30pm 15.1 11.1 3.0 44 5.5 SSE 13 13 7 7 1020.9 1020.3 0.0
26/09:00pm 17.1 13.2 1.1 34 7.1 SSE 11 13 6 7 1020.9 1020.3 0.0
26/08:30pm 17.8 13.1 0.9 32 7.5 SE 15 17 8 9 1020.6 1020.0 0.0
26/08:00pm 18.2 13.8 0.4 30 7.9 SE 13 17 7 9 1020.3 1019.7 0.0
26/07:30pm 18.6 13.4 0.2 29 8.1 SE 17 22 9 12 1019.8 1019.2 0.0
26/07:00pm 19.2 14.0 -0.2 27 8.5 SSE 17 20 9 11 1019.5 1018.9 0.0
26/06:30pm 20.1 14.5 0.0 26 9.0 SSE 19 30 10 16 1019.2 1018.6 0.0
26/06:00pm 20.9 14.6 -1.0 23 9.6 SSE 22 33 12 18 1018.9 1018.4 0.0
26/05:30pm 21.5 15.6 -1.1 22 10.0 SSE 20 32 11 17 1018.7 1018.2 0.0
26/05:00pm 21.9 15.2 -0.8 22 10.1 SSE 24 32 13 17 1018.5 1018.0 0.0
26/04:30pm 22.2 15.4 -1.8 20 10.5 SSE 24 35 13 19 1018.0 1017.5 0.0
26/04:00pm 22.2 14.3 -1.8 20 10.5 SE 30 43 16 23 1018.0 1017.5 0.0
26/03:30pm 22.2 14.6 -1.8 20 10.5 SSE 28 46 15 25 1018.2 1017.7 0.0
26/03:00pm 22.7 14.8 -1.4 20 10.7 S 30 39 16 21 1018.2 1017.7 0.0
26/02:30pm 22.9 15.5 -0.6 21 10.6 SSE 28 39 15 21 1018.3 1017.8 0.0
26/02:00pm 22.0 14.1 -1.3 21 10.3 SSE 30 41 16 22 1018.7 1018.2 0.0
26/01:30pm 21.9 13.6 -1.4 21 10.3 SE 32 46 17 25 1019.0 1018.5 0.0
26/01:23pm 21.7 14.6 -0.9 22 10.0 SE 26 46 14 25 1019.3 1018.7 0.0
26/01:00pm 21.5 14.0 -1.1 22 10.0 SSE 28 41 15 22 1019.6 1019.0 0.0
26/12:30pm 21.3 13.8 -1.3 22 9.9 SE 28 41 15 22 1020.3 1019.7 0.0
26/12:00pm 21.0 12.7 -1.5 22 9.8 SE 32 44 17 24 1020.5 1019.9 0.0
26/11:30am 21.0 13.3 -0.3 24 9.5 SE 30 39 16 21 1020.7 1020.1 0.0
26/11:00am 20.0 12.3 -0.1 26 8.9 SE 30 41 16 22 1021.1 1020.5 0.0
26/10:30am 19.4 11.0 -1.1 25 8.9 SE 33 44 18 24 1021.3 1020.7 0.0
26/10:00am 19.2 11.3 0.8 29 8.3 SSE 32 39 17 21 1021.2 1020.6 0.0
26/09:51am 19.1 11.8 0.2 28 8.4 SSE 28 43 15 23 1021.2 1020.6 0.0
26/09:30am 17.4 12.5 2.2 36 6.9 SSE 17 24 9 13 1021.3 1020.7 0.0
26/09:00am 16.1 12.4 4.5 46 5.5 S 13 17 7 9 1021.3 1020.7 0.0
26/08:30am 14.1 11.2 4.9 54 4.3 S 9 11 5 6 1021.1 1020.5 0.0
26/08:00am 12.4 9.3 5.6 63 3.2 S 11 15 6 8 1020.9 1020.3 0.0
26/07:30am 10.1 7.4 5.5 73 2.1 S 9 11 5 6 1020.8 1020.2 0.0
26/07:00am 8.9 5.7 4.9 76 1.8 S 11 13 6 7 1020.6 1020.0 0.0
26/06:30am 9.0 5.8 5.0 76 1.8 S 11 13 6 7 1020.4 1019.8 0.0
26/06:00am 9.6 6.0 5.0 73 2.1 S 13 15 7 8 1020.0 1019.4 0.0
26/05:30am 9.8 7.0 5.2 73 2.1 S 9 11 5 6 1019.7 1019.1 0.0
26/05:00am 9.9 6.7 5.1 72 2.2 S 11 11 6 6 1019.3 1018.7 0.0
26/04:30am 10.0 6.8 5.0 71 2.3 S 11 13 6 7 1019.0 1018.5 0.0
26/04:00am 10.4 7.1 4.8 68 2.5 S 11 11 6 6 1018.9 1018.4 0.0
26/03:30am 11.2 7.9 4.7 64 3.0 S 11 13 6 7 1018.8 1018.3 0.0
26/03:00am 11.7 8.0 4.2 60 3.4 S 13 15 7 8 1018.9 1018.4 0.0
26/02:30am 12.6 8.9 4.3 57 3.8 S 13 19 7 10 1018.9 1018.4 0.0
26/02:00am 13.1 8.6 4.0 54 4.2 S 17 20 9 11 1019.0 1018.5 0.0
26/01:30am 13.2 8.8 4.6 56 4.0 S 17 20 9 11 1019.0 1018.5 0.0
26/01:00am 12.1 8.5 4.8 61 3.4 SSW 13 15 7 8 1019.0 1018.5 0.0
26/12:30am 12.0 8.8 5.0 62 3.2 SSW 11 11 6 6 1018.9 1018.4 0.0
26/12:00am 12.2 9.0 5.1 62 3.3 SSW 11 13 6 7 1018.9 1018.4 0.0
 
Date/Time
EST
Temp
°C
App
Temp
°C
Dew
Point
°C
Rel
Hum
%
Delta-T
°C
Wind Press
QNH
hPa
Press
MSL
hPa
Rain since
9am
mm
Dir  Spd
km/h
Gust
km/h
Spd
kts
Gust
kts
25/11:30pm 12.6 9.4 5.1 60 3.5 SSW 11 13 6 7 1018.8 1018.3 0.0
25/11:00pm 12.9 9.6 4.8 58 3.8 SSW 11 11 6 6 1018.7 1018.2 0.0
25/10:30pm 13.5 10.3 4.9 56 4.0 SSW 11 13 6 7 1018.5 1018.0 0.0
25/10:00pm 14.0 10.9 5.4 56 4.1 SSW 11 15 6 8 1018.1 1017.6 0.0
25/09:30pm 14.4 11.2 5.2 54 4.4 SSW 11 13 6 7 1017.9 1017.4 0.0
25/09:00pm 15.1 12.2 4.8 50 4.9 SSW 9 11 5 6 1017.6 1017.0 0.0
25/08:30pm 16.0 12.6 3.8 44 5.7 SSW 11 15 6 8 1017.1 1016.5 0.0
25/08:00pm 16.9 12.9 2.9 39 6.4 SW 13 17 7 9 1016.7 1016.1 0.0
25/07:30pm 17.2 13.2 3.1 39 6.5 SSW 13 15 7 8 1016.2 1015.6 0.0
25/07:00pm 17.7 13.6 2.1 35 7.1 SSW 13 17 7 9 1015.7 1015.1 0.0
25/06:30pm 19.0 14.8 1.5 31 8.0 SSW 13 17 7 9 1015.4 1014.8 0.0
25/06:00pm 20.6 15.5 1.0 27 9.0 SSW 17 24 9 13 1014.9 1014.3 0.0
25/05:30pm 21.0 16.0 -0.9 23 9.7 SSW 15 19 8 10 1014.7 1014.1 0.0
25/05:00pm 21.6 16.6 1.3 26 9.4 SSW 17 26 9 14 1014.4 1013.8 0.0
25/04:30pm 21.5 17.5 0.7 25 9.5 S 11 26 6 14 1014.2 1013.6 0.0
25/04:00pm 21.6 16.8 0.2 24 9.7 S 15 22 8 12 1014.1 1013.5 0.0
25/03:30pm 22.0 17.8 1.6 26 9.5 SW 13 28 7 15 1014.2 1013.6 0.0
25/03:00pm 22.1 17.5 1.7 26 9.6 S 15 26 8 14 1014.3 1013.7 0.0
25/02:30pm 21.1 16.3 0.3 25 9.4 SSW 15 20 8 11 1014.8 1014.2 0.0
25/02:00pm 21.2 17.1 2.5 29 8.8 WSW 13 24 7 13 1015.2 1014.6 0.0
25/01:30pm 20.7 16.3 2.5 30 8.6 S 15 20 8 11 1015.5 1014.9 0.0
25/01:00pm 20.0 16.5 1.4 29 8.5 SSW 9 24 5 13 1015.9 1015.3 0.0
25/12:30pm 19.7 15.6 2.1 31 8.2 SSW 13 20 7 11 1016.3 1015.7 0.0
25/12:00pm 18.9 14.4 2.3 33 7.7 SSE 15 30 8 16 1016.8 1016.2 0.0
25/11:30am 18.5 13.6 1.9 33 7.6 SE 17 26 9 14 1017.2 1016.6 0.0
25/11:00am 18.3 13.9 4.5 40 6.6 SSE 17 24 9 13 1017.6 1017.0 0.0
25/10:30am 17.7 12.2 3.9 40 6.5 SSE 22 30 12 16 1017.6 1017.0 0.0
25/10:00am 17.0 11.8 5.3 46 5.7 SSE 22 32 12 17 1017.9 1017.4 0.0
25/09:30am 16.1 10.5 5.4 49 5.2 SSE 24 35 13 19 1018.2 1017.7 0.0
25/09:00am 15.1 9.6 6.1 55 4.4 S 24 33 13 18 1017.9 1017.4 0.2
25/08:30am 14.2 10.0 7.5 64 3.3 SSW 19 24 10 13 1017.7 1017.1 0.2

Other Formats:

Comma delimited format used in spreadsheet applications
http://www.bom.gov.au/fwo/IDQ60801/IDQ60801.94335.axf

JavaScript Object Notation format (JSON) in row-major order
http://www.bom.gov.au/fwo/IDQ60801/IDQ60801.94335.json